Thunder radar more information blitzortung!


Löydät sääaseman tiedot myös:

European Weather Network

Finland Weather Exchange

Weather Underground

AWEKAS



Weather Underground säähistoriasivu

Päivittäin yhteenveto Kesäkuu 2, 2017 Yksiköt:  Metriset    Englantilaiset   Molemmat
« Edellinen Päivä
Seuraava Päivä »
Päivittäin Viikoittain Kuukausittain Vuosittain Mukautettu
  Korkea: Matala: Keskiarvo:
Lämpötila: -17.8 °C -16.6 °C -14.9 °C
Kastepiste: -17.8 °C -18.5 °C -17.7 °C
Kosteus: Humidity % 47 % 71 %
Tuulen nopeus: 0 km/h 0 km/h 7.6 km/h
Tuulenpuuska: 0 km/h - -
Tuuli:- - WNW
Ilmanpaine: 0 hPa 34063.2 hPa -
Sade: 25.4 mm    
Historical Graphs
 
 
Taulukkotiedot Kesäkuu 2, 2017
Aika Lämpötila Kastepiste Ilmanpaine Tuuli Tuulen nopeus Tuulenpuuska Kosteus Sademäärä (tunneittain)
-17.8 °C -17.8 °C 0 hPa Calm     Humidity % 0 mm
00:00 -15.8 °C -17.7 °C 34063.2 hPa WNW 2.6 km/h 12.9 km/h 78 % 0 mm
00:15 -15.9 °C -17.7 °C 34063.2 hPa NW 2.6 km/h 18.2 km/h 80 % 0 mm
00:30 -16.1 °C -17.7 °C 34063.2 hPa WNW 2.6 km/h 15.6 km/h 81 % 0 mm
00:45 -16.2 °C -17.7 °C 34063.2 hPa NW 5.1 km/h 15.6 km/h 83 % 0 mm
01:00 -16.2 °C -17.7 °C 34063.2 hPa NW 5.1 km/h 15.6 km/h 83 % 0 mm
01:15 -16.2 °C -17.7 °C 34063.2 hPa NW 2.6 km/h 18.2 km/h 83 % 0 mm
01:30 -16.3 °C -17.7 °C 34063.2 hPa Calm   12.9 km/h 84 % 0 mm
01:45 -16.4 °C -17.7 °C 34073.3 hPa WNW 5.1 km/h 12.9 km/h 84 % 0 mm
02:00 -16.4 °C -17.8 °C 34063.2 hPa Calm   7.7 km/h 84 % 0 mm
02:15 -16.6 °C -17.8 °C 34063.2 hPa Calm   7.7 km/h 85 % 0 mm
02:30 -16.5 °C -17.7 °C 34063.2 hPa WNW 5.1 km/h 20.8 km/h 86 % 0 mm
02:45 -16.6 °C -17.8 °C 34063.2 hPa WNW 2.6 km/h 18.2 km/h 85 % 0 mm
03:00 -16.6 °C -17.7 °C 34063.2 hPa NW 2.6 km/h 18.2 km/h 87 % 0 mm
03:15 -16.3 °C -17.6 °C 34063.2 hPa NW 7.7 km/h 23.3 km/h 85 % 0 mm
03:30 -16.1 °C -17.7 °C 34063.2 hPa NW 7.7 km/h 23.3 km/h 82 % 0 mm
03:45 -16.1 °C -17.8 °C 34063.2 hPa NW 10.3 km/h 18.2 km/h 80 % 0 mm
04:00 -16.1 °C -17.9 °C 34063.2 hPa NW 10.3 km/h 23.3 km/h 79 % 0 mm
04:30 -16.2 °C -18.1 °C 34063.2 hPa NW 10.3 km/h 25.9 km/h 78 % 0 mm
04:45 -16.2 °C -18.2 °C 34063.2 hPa NW 7.7 km/h 20.8 km/h 78 % 0 mm
05:00 -16.1 °C -18 °C 34073.3 hPa NNW 7.7 km/h 25.9 km/h 78 % 0 mm
05:15 -16.3 °C -17.6 °C 34073.3 hPa NNW 7.7 km/h 20.8 km/h 85 % 0 mm
05:30 -16.3 °C -17.4 °C 34073.3 hPa NW 7.7 km/h 18.2 km/h 86 % 0 mm
05:45 -16.4 °C -17.4 °C 34086.9 hPa NNW 7.7 km/h 33.6 km/h 88 % 7.62 mm
06:00 -16.6 °C -17.4 °C 34086.9 hPa NNW 10.3 km/h 31.1 km/h 90 % 12.7 mm
06:15 -16.6 °C -17.3 °C 34086.9 hPa NNW 7.7 km/h 25.9 km/h 91 % 12.7 mm
06:30 -16.6 °C -17.2 °C 34097 hPa NNW 7.7 km/h 25.9 km/h 92 % 12.7 mm
06:45 -16.6 °C -17.2 °C 34097 hPa NNW 10.3 km/h 25.9 km/h 93 % 7.62 mm
07:00 -16.6 °C -17.2 °C 34097 hPa NNW 10.3 km/h 25.9 km/h 93 % 7.62 mm
07:15 -16.6 °C -17.1 °C 34107.2 hPa NNW 10.3 km/h 25.9 km/h 93 % 7.62 mm
07:30 -16.6 °C -17.2 °C 34107.2 hPa North 10.3 km/h 23.3 km/h 93 % 12.7 mm
07:45 -16.6 °C -17 °C 34107.2 hPa NNW 7.7 km/h 20.8 km/h 94 % 12.7 mm
08:00 -16.6 °C -17.1 °C 34120.7 hPa NNW 10.3 km/h 36.2 km/h 94 % 12.7 mm
08:15 -16.6 °C -17.1 °C 34130.9 hPa NNW 10.3 km/h 31.1 km/h 94 % 12.7 mm
08:45 -16.6 °C -17.1 °C 34130.9 hPa North 10.3 km/h 28.5 km/h 93 % 0 mm
09:00 -16.4 °C -17 °C 34144.4 hPa NNW 10.3 km/h 38.8 km/h 93 % 0 mm
09:15 -16.4 °C -16.9 °C 34144.4 hPa NNW 10.3 km/h 33.6 km/h 93 % 0 mm
09:30 -16.3 °C -17 °C 34154.6 hPa NNW 12.9 km/h 33.6 km/h 91 % 0 mm
09:45 -16.1 °C -16.8 °C 34164.7 hPa North 10.3 km/h 31.1 km/h 91 % 0 mm
10:00 -16.2 °C -16.9 °C 34178.3 hPa North 10.3 km/h 23.3 km/h 90 % 0 mm
10:15 -16.2 °C -17.1 °C 34188.4 hPa North 10.3 km/h 23.3 km/h 89 % 0 mm
10:30 -16 °C -16.9 °C 34198.6 hPa North 10.3 km/h 23.3 km/h 89 % 0 mm
10:45 -16 °C -17.1 °C 34198.6 hPa North 12.9 km/h 59.5 km/h 87 % 0 mm
11:00 -16.1 °C -17.3 °C 34222.3 hPa North 12.9 km/h 36.2 km/h 86 % 0 mm
11:15 -16 °C -17.3 °C 34222.3 hPa North 10.3 km/h 25.9 km/h 85 % 0 mm
11:30 -15.9 °C -17.2 °C 34222.3 hPa North 7.7 km/h 23.3 km/h 85 % 0 mm
11:45 -15.8 °C -17.3 °C 34235.8 hPa North 10.3 km/h 23.3 km/h 82 % 0 mm
12:00 -15.5 °C -17.4 °C 34246 hPa North 10.3 km/h 23.3 km/h 79 % 0 mm
12:15 -15.2 °C -17.4 °C 34246 hPa North 10.3 km/h 23.3 km/h 76 % 0 mm
12:30 -15.1 °C -17.7 °C 34256.2 hPa North 15.6 km/h 36.2 km/h 72 % 0 mm
12:45 -14.7 °C -17.4 °C 34256.2 hPa North 12.9 km/h 36.2 km/h 71 % 0 mm
13:00 -14.6 °C -17.8 °C 34256.2 hPa NNW 15.6 km/h 41.4 km/h 67 % 0 mm
13:15 -14.5 °C -17.6 °C 34256.2 hPa North 15.6 km/h 31.1 km/h 67 % 0 mm
13:30 -13.9 °C -17.5 °C 34269.7 hPa North 15.6 km/h 36.2 km/h 64 % 0 mm
13:45 -13.7 °C -18.1 °C 34269.7 hPa NNW 18.2 km/h 46.7 km/h 57 % 0 mm
14:00 -13.7 °C -17.6 °C 34279.9 hPa North 12.9 km/h 36.2 km/h 61 % 0 mm
14:15 -13.6 °C -18 °C 34279.9 hPa North 15.6 km/h 31.1 km/h 57 % 0 mm
14:30 -13.7 °C -17.8 °C 34279.9 hPa North 15.6 km/h 36.2 km/h 59 % 0 mm
14:45 -13.4 °C -18.1 °C 34293.4 hPa North 12.9 km/h 31.1 km/h 56 % 0 mm
15:00 -13.3 °C -17.8 °C 34293.4 hPa North 12.9 km/h 23.3 km/h 57 % 0 mm
15:15 -13.2 °C -17.9 °C 34293.4 hPa NNW 15.6 km/h 51.8 km/h 55 % 0 mm
15:30 -12.8 °C -18.2 °C 34293.4 hPa NNW 15.6 km/h 51.8 km/h 51 % 0 mm
15:45 -12.8 °C -18.3 °C 34303.6 hPa North 18.2 km/h 44.1 km/h 50 % 0 mm
16:00 -12.7 °C -18.4 °C 34303.6 hPa NNW 15.6 km/h 38.8 km/h 49 % 0 mm
16:15 -12.6 °C -17.7 °C 34303.6 hPa North 10.3 km/h 23.3 km/h 52 % 0 mm
16:30 -12.4 °C -17.9 °C 34303.6 hPa North 10.3 km/h 23.3 km/h 50 % 0 mm
16:45 -12.6 °C -18.3 °C 34303.6 hPa North 12.9 km/h 36.2 km/h 48 % 0 mm
17:00 -12.6 °C -18.4 °C 34303.6 hPa North 15.6 km/h 33.6 km/h 48 % 0 mm
17:15 -12.2 °C -18.1 °C 34303.6 hPa North 10.3 km/h 31.1 km/h 48 % 0 mm
17:30 -12.4 °C -17.7 °C 34313.7 hPa North 10.3 km/h 41.4 km/h 51 % 0 mm
17:45 -12.4 °C -18.4 °C 34313.7 hPa NNE 12.9 km/h 28.5 km/h 47 % 0 mm
18:00 -12.3 °C -17.7 °C 34313.7 hPa North 7.7 km/h 20.8 km/h 51 % 0 mm
18:15 -12.3 °C -18.3 °C 34313.7 hPa North 10.3 km/h 36.2 km/h 47 % 0 mm
18:30 -12.4 °C -17.6 °C 34313.7 hPa North 7.7 km/h 18.2 km/h 52 % 0 mm
18:45 -12.4 °C -18.1 °C 34327.3 hPa Calm     49 % 0 mm
19:00 -12.6 °C -18.3 °C 34327.3 hPa Calm     48 % 0 mm
19:15 -12.6 °C -18.1 °C 34327.3 hPa Calm     50 % 0 mm
19:30 -12.6 °C -17.8 °C 34327.3 hPa Calm     52 % 0 mm
19:45 -12.8 °C -18.3 °C 34327.3 hPa Calm     50 % 0 mm
20:00 -12.9 °C -18.1 °C 34327.3 hPa Calm     52 % 0 mm
20:15 -13.1 °C -18.4 °C 34337.4 hPa Calm     51 % 0 mm
20:30 -13.1 °C -18.4 °C 34337.4 hPa Calm     51 % 0 mm
20:45 -13.2 °C -18.5 °C 34337.4 hPa Calm     51 % 0 mm
21:00 -13.4 °C -18.2 °C 34347.6 hPa Calm     55 % 0 mm
21:15 -13.7 °C -18 °C 34347.6 hPa Calm     58 % 0 mm
21:30 -13.8 °C -17.9 °C 34347.6 hPa Calm     59 % 0 mm
21:45 -13.9 °C -18.1 °C 34361.1 hPa Calm     59 % 0 mm
22:00 -13.9 °C -17.9 °C 34361.1 hPa Calm     60 % 0 mm
22:15 -14 °C -18.1 °C 34361.1 hPa Calm     60 % 0 mm
22:30 -14.1 °C -17.9 °C 34361.1 hPa Calm     62 % 0 mm
22:45 -14.2 °C -18 °C 34361.1 hPa Calm     62 % 0 mm
23:00 -14.3 °C -18 °C 34361.1 hPa Calm   2.6 km/h 63 % 0 mm
23:30 -14.9 °C -17.9 °C 34361.1 hPa Calm   7.7 km/h 68 % 0 mm
23:45 -14.9 °C -18.1 °C 34361.1 hPa Calm   7.7 km/h 67 % 0 mm
Esan sääasema
Terveisin Weather Underground - 2.75 mb

Alkuperäinen skripti  Jim McMurry - jmcmurry@mwt.net Sovitettu myös templatelle  Wim van der Kuil - Leuven-Template.eu

Laitteet joita käytämme:

Sääasema
Davis VP2

Sääasemaohjelma
Cumulus

Sääaseman tietokone
Asus EeePC

Palveluntarjoaja
Suncomet

Davis VP2

Cumulus

Asus EeePC

Suncomet